Cosco Kaohsiung — VREM3 — position and weather

sailwx.info

Track history (hours):
 
Tides and Currents Weather Stations Pressure Air Temp Water Temp Dewpoint Dewpoint Depression Visibility Wind Speed Wind Dir Waves Ship Positions

Cosco Kaohsiung

Last reported at 2017-Sep-18 04:55 UTC. Time now 2017-Sep-24 09:01 UTC.
Position N 01°19' E 103°18'.

Length 349 m; draft 14.3 m.

Type: Ship (hazmat cat A). MMSI: 477136800.

Date/timePositionNaut miles runAvg speedWind from/ knotsBaromVisibWave heightAir tempDewpointWater temp
2017-Sep-18 04:55N 01°19' E 103°18'717.6
2017-Sep-18 04:30N 01°15' E 103°23'817.2
2017-Sep-18 04:00N 01°12' E 103°31'714.8
2017-Sep-18 03:30N 01°12' E 103°39'4 7.0
2017-Sep-18 03:00N 01°14' E 103°42'4 8.7
2017-Sep-18 02:30N 01°16' E 103°45'2 3.0
2017-Sep-18 02:00N 01°16' E 103°47'0 0.4
2017-Sep-18 01:28N 01°16' E 103°47'0 0.0
2017-Sep-18 00:58N 01°16' E 103°47'0 0.0
2017-Sep-18 00:28N 01°16' E 103°47'0 0.0
2017-Sep-17 23:58N 01°16' E 103°47'0 0.0
2017-Sep-17 23:28N 01°16' E 103°47'0 0.0
2017-Sep-17 22:58N 01°16' E 103°47'0 0.0
2017-Sep-17 22:28N 01°16' E 103°47'0 0.0
2017-Sep-17 21:58N 01°16' E 103°47'0 0.0
2017-Sep-17 21:28N 01°16' E 103°47'0 0.0
2017-Sep-17 20:55N 01°16' E 103°47'0 0.0
2017-Sep-17 20:28N 01°16' E 103°47'0 0.0
2017-Sep-17 19:58N 01°16' E 103°47'0 0.0
2017-Sep-17 19:28N 01°16' E 103°47'0 0.0
2017-Sep-17 18:58N 01°16' E 103°47'0 0.0
2017-Sep-17 18:28N 01°16' E 103°47'0 0.0
2017-Sep-17 17:58N 01°16' E 103°47'0 0.0
2017-Sep-17 17:28N 01°16' E 103°47'0 0.0
2017-Sep-17 16:58N 01°16' E 103°47'0 0.0
2017-Sep-17 16:28N 01°16' E 103°47'0 0.0
2017-Sep-17 15:58N 01°16' E 103°47'0 0.0
2017-Sep-17 15:28N 01°16' E 103°47'0 0.0
2017-Sep-17 14:58N 01°16' E 103°47'0 0.0
2017-Sep-17 14:28N 01°16' E 103°47'0 0.0
2017-Sep-17 13:58N 01°16' E 103°47'0 0.0
2017-Sep-17 13:28N 01°16' E 103°47'0 0.0
2017-Sep-17 12:55N 01°16' E 103°47'0 0.0
2017-Sep-17 12:25N 01°16' E 103°47'0 0.0
2017-Sep-17 11:58N 01°16' E 103°47'0 0.0
2017-Sep-17 11:28N 01°16' E 103°47'0 0.0
2017-Sep-17 10:58N 01°16' E 103°47'0 0.0
2017-Sep-17 10:28N 01°16' E 103°47'0 0.0
2017-Sep-17 09:58N 01°16' E 103°47'0 0.0
2017-Sep-17 09:28N 01°16' E 103°47'0 0.0
2017-Sep-17 08:58N 01°16' E 103°47'0 0.0
2017-Sep-17 08:25N 01°16' E 103°47'0 0.4
2017-Sep-17 08:00N 01°16' E 103°47'1 2.8
2017-Sep-17 07:30N 01°15' E 103°47'3 6.0
2017-Sep-17 07:00N 01°13' E 103°49'4 8.8
2017-Sep-17 06:30N 01°13' E 103°53'4 8.3
2017-Sep-17 06:00N 01°15' E 103°57'4 8.0
2017-Sep-17 05:30N 01°16' E 104°01'4 7.7
2017-Sep-17 05:00N 01°17' E 104°05'4 8.0
2017-Sep-17 04:30N 01°17' E 104°08'  
2017-Sep-13 00:31N 22°30' E 113°45'0 9.1
2017-Sep-13 00:30N 22°30' E 113°45'713.8
2017-Sep-13 00:00N 22°37' E 113°42'2 3.0
2017-Sep-12 23:30N 22°38' E 113°41'0 0.0
2017-Sep-12 18:02N 22°38' E 113°41'0 0.0
2017-Sep-12 17:41N 22°38' E 113°41'0 0.0
2017-Sep-12 16:11N 22°38' E 113°41'0 0.0
2017-Sep-12 15:59N 22°38' E 113°41'0 0.0
2017-Sep-12 15:29N 22°38' E 113°41'0 0.0
2017-Sep-12 14:44N 22°38' E 113°41'0 0.0
2017-Sep-12 14:29N 22°38' E 113°41'0 0.0
2017-Sep-12 11:44N 22°38' E 113°41'0 0.0
2017-Sep-12 11:29N 22°38' E 113°41'0 0.1
2017-Sep-12 10:59N 22°38' E 113°41'3 5.4
2017-Sep-12 10:29N 22°36' E 113°43'612.7
2017-Sep-12 09:59N 22°30' E 113°45'714.2
2017-Sep-12 09:29N 22°23' E 113°47'23012.8
2017-Sep-11 15:34N 23°28' E 117°46'1216.0
2017-Sep-11 14:48N 23°36' E 117°56'516.2
2017-Sep-11 14:28N 23°39' E 118°00'817.0
2017-Sep-11 14:00N 23°44' E 118°07'816.6
2017-Sep-11 13:29N 23°50' E 118°14'816.7
2017-Sep-11 13:00N 23°55' E 118°21'816.9
2017-Sep-11 12:31N 23°60' E 118°28'916.9
2017-Sep-11 12:00N 24°06' E 118°34'917.0
2017-Sep-11 11:30N 24°13' E 118°40'916.3
2017-Sep-11 10:56N 24°18' E 118°49'917.0
2017-Sep-11 10:26N 24°22' E 118°57'817.4
2017-Sep-11 10:00N 24°28' E 119°03'817.3
2017-Sep-11 09:30N 24°34' E 119°10'817.1
2017-Sep-11 09:01N 24°39' E 119°16'917.0
2017-Sep-11 08:31N 24°45' E 119°24'916.8
2017-Sep-11 08:00N 24°50' E 119°31'816.8
2017-Sep-11 07:31N 24°56' E 119°38'916.8
2017-Sep-11 06:57N 25°03' E 119°44'817.0
2017-Sep-11 06:28N 25°10' E 119°49'815.9
2017-Sep-11 05:59N 25°16' E 119°54'27916.6
2017-Sep-10 13:08N 29°17' E 122°33'216.8
2017-Sep-10 13:00N 29°19' E 122°33'1616.9
2017-Sep-10 12:03N 29°36' E 122°31'118.7
2017-Sep-10 12:00N 29°36' E 122°30'917.5
2017-Sep-10 11:30N 29°42' E 122°23'714.8
2017-Sep-10 11:00N 29°47' E 122°16'611.4
2017-Sep-10 10:30N 29°51' E 122°12'612.5
2017-Sep-10 10:00N 29°55' E 122°07'4 7.5
2017-Sep-10 09:31N 29°53' E 122°03'0 0.1
2017-Sep-10 08:59N 29°53' E 122°03'0 0.0
2017-Sep-10 08:29N 29°53' E 122°03'0 0.0
2017-Sep-10 07:59N 29°53' E 122°03'0 0.0
2017-Sep-10 07:29N 29°53' E 122°03'0 0.0
2017-Sep-10 06:59N 29°53' E 122°03'0 0.0
2017-Sep-10 06:29N 29°53' E 122°03'0 0.0
2017-Sep-10 05:53N 29°53' E 122°03'0 0.0
2017-Sep-10 05:29N 29°53' E 122°03'0 0.0
2017-Sep-10 04:59N 29°53' E 122°03'0 0.0
2017-Sep-10 04:29N 29°53' E 122°03'0 0.0
2017-Sep-10 03:59N 29°53' E 122°03'0 0.0
2017-Sep-10 03:29N 29°53' E 122°03'0 0.0
2017-Sep-10 02:53N 29°53' E 122°03'0 0.0
2017-Sep-10 02:23N 29°53' E 122°03'0 0.0
2017-Sep-10 01:59N 29°53' E 122°03'0 0.0
2017-Sep-10 01:29N 29°53' E 122°03'0 0.0
2017-Sep-10 00:41N 29°53' E 122°03'0 0.0
2017-Sep-10 00:23N 29°53' E 122°03'0 0.0
2017-Sep-09 23:59N 29°53' E 122°03'0 0.0
2017-Sep-09 23:29N 29°53' E 122°03'0 0.0
2017-Sep-09 22:59N 29°53' E 122°03'0 0.0
2017-Sep-09 22:23N 29°53' E 122°03'0 0.0
2017-Sep-09 21:59N 29°53' E 122°03'0 0.3
2017-Sep-09 21:30N 29°53' E 122°03'1 1.6
2017-Sep-09 21:00N 29°54' E 122°04'5 9.1
2017-Sep-09 20:30N 29°55' E 122°09'611.8
2017-Sep-09 20:00N 29°50' E 122°13'510.8
2017-Sep-09 19:30N 29°47' E 122°17'4 7.6
2017-Sep-09 19:00N 29°45' E 122°21'4 7.4
2017-Sep-09 18:30N 29°44' E 122°25'3 6.3
2017-Sep-09 18:00N 29°43' E 122°28'612.5
2017-Sep-09 17:30N 29°46' E 122°35'816.9
2017-Sep-09 17:00N 29°52' E 122°42'917.3
2017-Sep-09 16:30N 29°59' E 122°48'4212.6
2017-Sep-09 13:09N 30°40' E 122°55'6412.0
2017-Sep-09 07:48N 31°16' E 121°53'413.2
2017-Sep-09 07:30N 31°17' E 121°49'713.6
2017-Sep-09 07:00N 31°20' E 121°41'510.9
2017-Sep-09 06:30N 31°23' E 121°36'1 1.5
2017-Sep-09 05:58N 31°22' E 121°35'0 0.0
2017-Sep-09 05:28N 31°22' E 121°35'0 0.0
2017-Sep-09 04:58N 31°22' E 121°35'0 0.0
2017-Sep-09 04:28N 31°23' E 121°35'0 0.0
2017-Sep-09 03:58N 31°22' E 121°35'0 0.0
2017-Sep-09 03:28N 31°22' E 121°35'0 0.0
2017-Sep-09 02:58N 31°22' E 121°35'0 0.0
2017-Sep-09 02:28N 31°22' E 121°35'0 0.0
2017-Sep-09 01:58N 31°22' E 121°35'0 0.0
2017-Sep-09 01:28N 31°22' E 121°35'0 0.0
2017-Sep-09 00:58N 31°22' E 121°35'0 0.0
2017-Sep-09 00:28N 31°22' E 121°35'0 0.0
2017-Sep-08 23:58N 31°22' E 121°35'0 0.0
2017-Sep-08 23:28N 31°22' E 121°35'0 0.0
2017-Sep-08 22:58N 31°22' E 121°35'0 0.0
2017-Sep-08 22:28N 31°22' E 121°35'0 0.0
2017-Sep-08 21:58N 31°22' E 121°35'0 0.0
2017-Sep-08 21:28N 31°22' E 121°35'0 0.0
2017-Sep-08 20:58N 31°22' E 121°35'0 0.0
2017-Sep-08 20:28N 31°22' E 121°35'0 0.0
2017-Sep-08 19:58N 31°22' E 121°35'0 0.0
2017-Sep-08 19:28N 31°22' E 121°35'0 0.0
2017-Sep-08 18:58N 31°22' E 121°35'0 0.0
2017-Sep-08 18:28N 31°22' E 121°35'0 0.0
2017-Sep-08 17:58N 31°22' E 121°35'0 0.0
2017-Sep-08 17:28N 31°22' E 121°35'0 0.0
2017-Sep-08 16:58N 31°22' E 121°35'0 0.0
2017-Sep-08 16:22N 31°22' E 121°35'0 0.0
2017-Sep-08 15:55N 31°22' E 121°35'0 0.0
2017-Sep-08 15:29N 31°22' E 121°35'0 0.0
2017-Sep-08 14:58N 31°22' E 121°35'0 0.0
2017-Sep-08 14:28N 31°22' E 121°35'0 0.0
2017-Sep-08 13:55N 31°22' E 121°35'0 0.0
2017-Sep-08 13:28N 31°22' E 121°35'0 0.0
2017-Sep-08 12:58N 31°22' E 121°35'0 0.0
2017-Sep-08 12:28N 31°22' E 121°35'0 0.0
2017-Sep-08 11:55N 31°22' E 121°35'0 0.0
2017-Sep-08 11:28N 31°22' E 121°35'0 0.0
2017-Sep-08 10:58N 31°22' E 121°35'0 0.0
2017-Sep-08 10:29N 31°22' E 121°35'0 0.0
2017-Sep-08 09:58N 31°22' E 121°35'0 0.0
2017-Sep-08 09:28N 31°22' E 121°35'0 0.0
2017-Sep-08 08:55N 31°22' E 121°35'0 0.0
2017-Sep-08 08:13N 31°22' E 121°35'0 0.0
2017-Sep-08 07:58N 31°22' E 121°35'0 0.0
2017-Sep-08 07:28N 31°22' E 121°35'0 0.0
2017-Sep-08 06:58N 31°22' E 121°35'0 0.0
2017-Sep-08 06:29N 31°22' E 121°35'0 0.8
2017-Sep-08 06:00N 31°23' E 121°35'0 0.4
2017-Sep-08 05:30N 31°23' E 121°34'0 0.9
2017-Sep-08 05:00N 31°23' E 121°35'  
Track history (hours):
 
Tides and Currents Weather Stations Pressure Air Temp Water Temp Dewpoint Dewpoint Depression Visibility Wind Speed Wind Dir Waves Ship Positions

Cosco Kaohsiung

Last reported at 2017-Sep-18 04:55 UTC. Time now 2017-Sep-24 09:01 UTC.
Position N 01°19' E 103°18'.

Length 349 m; draft 14.3 m.

Type: Ship (hazmat cat A). MMSI: 477136800.

Date/timePositionNaut miles runAvg speedWind from/ knotsBaromVisibWave heightAir tempDewpointWater temp
2017-Sep-18 04:55N 01°19' E 103°18'717.6
2017-Sep-18 04:30N 01°15' E 103°23'817.2
2017-Sep-18 04:00N 01°12' E 103°31'714.8
2017-Sep-18 03:30N 01°12' E 103°39'4 7.0
2017-Sep-18 03:00N 01°14' E 103°42'4 8.7
2017-Sep-18 02:30N 01°16' E 103°45'2 3.0
2017-Sep-18 02:00N 01°16' E 103°47'0 0.4
2017-Sep-18 01:28N 01°16' E 103°47'0 0.0
2017-Sep-18 00:58N 01°16' E 103°47'0 0.0
2017-Sep-18 00:28N 01°16' E 103°47'0 0.0
2017-Sep-17 23:58N 01°16' E 103°47'0 0.0
2017-Sep-17 23:28N 01°16' E 103°47'0 0.0
2017-Sep-17 22:58N 01°16' E 103°47'0 0.0
2017-Sep-17 22:28N 01°16' E 103°47'0 0.0
2017-Sep-17 21:58N 01°16' E 103°47'0 0.0
2017-Sep-17 21:28N 01°16' E 103°47'0 0.0
2017-Sep-17 20:55N 01°16' E 103°47'0 0.0
2017-Sep-17 20:28N 01°16' E 103°47'0 0.0
2017-Sep-17 19:58N 01°16' E 103°47'0 0.0
2017-Sep-17 19:28N 01°16' E 103°47'0 0.0
2017-Sep-17 18:58N 01°16' E 103°47'0 0.0
2017-Sep-17 18:28N 01°16' E 103°47'0 0.0
2017-Sep-17 17:58N 01°16' E 103°47'0 0.0
2017-Sep-17 17:28N 01°16' E 103°47'0 0.0
2017-Sep-17 16:58N 01°16' E 103°47'0 0.0
2017-Sep-17 16:28N 01°16' E 103°47'0 0.0
2017-Sep-17 15:58N 01°16' E 103°47'0 0.0
2017-Sep-17 15:28N 01°16' E 103°47'0 0.0
2017-Sep-17 14:58N 01°16' E 103°47'0 0.0
2017-Sep-17 14:28N 01°16' E 103°47'0 0.0
2017-Sep-17 13:58N 01°16' E 103°47'0 0.0
2017-Sep-17 13:28N 01°16' E 103°47'0 0.0
2017-Sep-17 12:55N 01°16' E 103°47'0 0.0
2017-Sep-17 12:25N 01°16' E 103°47'0 0.0
2017-Sep-17 11:58N 01°16' E 103°47'0 0.0
2017-Sep-17 11:28N 01°16' E 103°47'0 0.0
2017-Sep-17 10:58N 01°16' E 103°47'0 0.0
2017-Sep-17 10:28N 01°16' E 103°47'0 0.0
2017-Sep-17 09:58N 01°16' E 103°47'0 0.0
2017-Sep-17 09:28N 01°16' E 103°47'0 0.0
2017-Sep-17 08:58N 01°16' E 103°47'0 0.0
2017-Sep-17 08:25N 01°16' E 103°47'0 0.4
2017-Sep-17 08:00N 01°16' E 103°47'1 2.8
2017-Sep-17 07:30N 01°15' E 103°47'3 6.0
2017-Sep-17 07:00N 01°13' E 103°49'4 8.8
2017-Sep-17 06:30N 01°13' E 103°53'4 8.3
2017-Sep-17 06:00N 01°15' E 103°57'4 8.0
2017-Sep-17 05:30N 01°16' E 104°01'4 7.7
2017-Sep-17 05:00N 01°17' E 104°05'4 8.0
2017-Sep-17 04:30N 01°17' E 104°08'  
2017-Sep-13 00:31N 22°30' E 113°45'0 9.1
2017-Sep-13 00:30N 22°30' E 113°45'713.8
2017-Sep-13 00:00N 22°37' E 113°42'2 3.0
2017-Sep-12 23:30N 22°38' E 113°41'0 0.0
2017-Sep-12 18:02N 22°38' E 113°41'0 0.0
2017-Sep-12 17:41N 22°38' E 113°41'0 0.0
2017-Sep-12 16:11N 22°38' E 113°41'0 0.0
2017-Sep-12 15:59N 22°38' E 113°41'0 0.0
2017-Sep-12 15:29N 22°38' E 113°41'0 0.0
2017-Sep-12 14:44N 22°38' E 113°41'0 0.0
2017-Sep-12 14:29N 22°38' E 113°41'0 0.0
2017-Sep-12 11:44N 22°38' E 113°41'0 0.0
2017-Sep-12 11:29N 22°38' E 113°41'0 0.1
2017-Sep-12 10:59N 22°38' E 113°41'3 5.4
2017-Sep-12 10:29N 22°36' E 113°43'612.7
2017-Sep-12 09:59N 22°30' E 113°45'714.2
2017-Sep-12 09:29N 22°23' E 113°47'23012.8
2017-Sep-11 15:34N 23°28' E 117°46'1216.0
2017-Sep-11 14:48N 23°36' E 117°56'516.2
2017-Sep-11 14:28N 23°39' E 118°00'817.0
2017-Sep-11 14:00N 23°44' E 118°07'816.6
2017-Sep-11 13:29N 23°50' E 118°14'816.7
2017-Sep-11 13:00N 23°55' E 118°21'816.9
2017-Sep-11 12:31N 23°60' E 118°28'916.9
2017-Sep-11 12:00N 24°06' E 118°34'917.0
2017-Sep-11 11:30N 24°13' E 118°40'916.3
2017-Sep-11 10:56N 24°18' E 118°49'917.0
2017-Sep-11 10:26N 24°22' E 118°57'817.4
2017-Sep-11 10:00N 24°28' E 119°03'817.3
2017-Sep-11 09:30N 24°34' E 119°10'817.1
2017-Sep-11 09:01N 24°39' E 119°16'917.0
2017-Sep-11 08:31N 24°45' E 119°24'916.8
2017-Sep-11 08:00N 24°50' E 119°31'816.8
2017-Sep-11 07:31N 24°56' E 119°38'916.8
2017-Sep-11 06:57N 25°03' E 119°44'817.0
2017-Sep-11 06:28N 25°10' E 119°49'815.9
2017-Sep-11 05:59N 25°16' E 119°54'27916.6
2017-Sep-10 13:08N 29°17' E 122°33'216.8
2017-Sep-10 13:00N 29°19' E 122°33'1616.9
2017-Sep-10 12:03N 29°36' E 122°31'118.7
2017-Sep-10 12:00N 29°36' E 122°30'917.5
2017-Sep-10 11:30N 29°42' E 122°23'714.8
2017-Sep-10 11:00N 29°47' E 122°16'611.4
2017-Sep-10 10:30N 29°51' E 122°12'612.5
2017-Sep-10 10:00N 29°55' E 122°07'4 7.5
2017-Sep-10 09:31N 29°53' E 122°03'0 0.1
2017-Sep-10 08:59N 29°53' E 122°03'0 0.0
2017-Sep-10 08:29N 29°53' E 122°03'0 0.0
2017-Sep-10 07:59N 29°53' E 122°03'0 0.0
2017-Sep-10 07:29N 29°53' E 122°03'0 0.0
2017-Sep-10 06:59N 29°53' E 122°03'0 0.0
2017-Sep-10 06:29N 29°53' E 122°03'0 0.0
2017-Sep-10 05:53N 29°53' E 122°03'0 0.0
2017-Sep-10 05:29N 29°53' E 122°03'0 0.0
2017-Sep-10 04:59N 29°53' E 122°03'0 0.0
2017-Sep-10 04:29N 29°53' E 122°03'0 0.0
2017-Sep-10 03:59N 29°53' E 122°03'0 0.0
2017-Sep-10 03:29N 29°53' E 122°03'0 0.0
2017-Sep-10 02:53N 29°53' E 122°03'0 0.0
2017-Sep-10 02:23N 29°53' E 122°03'0 0.0
2017-Sep-10 01:59N 29°53' E 122°03'0 0.0
2017-Sep-10 01:29N 29°53' E 122°03'0 0.0
2017-Sep-10 00:41N 29°53' E 122°03'0 0.0
2017-Sep-10 00:23N 29°53' E 122°03'0 0.0
2017-Sep-09 23:59N 29°53' E 122°03'0 0.0
2017-Sep-09 23:29N 29°53' E 122°03'0 0.0
2017-Sep-09 22:59N 29°53' E 122°03'0 0.0
2017-Sep-09 22:23N 29°53' E 122°03'0 0.0
2017-Sep-09 21:59N 29°53' E 122°03'0 0.3
2017-Sep-09 21:30N 29°53' E 122°03'1 1.6
2017-Sep-09 21:00N 29°54' E 122°04'5 9.1
2017-Sep-09 20:30N 29°55' E 122°09'611.8
2017-Sep-09 20:00N 29°50' E 122°13'510.8
2017-Sep-09 19:30N 29°47' E 122°17'4 7.6
2017-Sep-09 19:00N 29°45' E 122°21'4 7.4
2017-Sep-09 18:30N 29°44' E 122°25'3 6.3
2017-Sep-09 18:00N 29°43' E 122°28'612.5
2017-Sep-09 17:30N 29°46' E 122°35'816.9
2017-Sep-09 17:00N 29°52' E 122°42'917.3
2017-Sep-09 16:30N 29°59' E 122°48'4212.6
2017-Sep-09 13:09N 30°40' E 122°55'6412.0
2017-Sep-09 07:48N 31°16' E 121°53'413.2
2017-Sep-09 07:30N 31°17' E 121°49'713.6
2017-Sep-09 07:00N 31°20' E 121°41'510.9
2017-Sep-09 06:30N 31°23' E 121°36'1 1.5
2017-Sep-09 05:58N 31°22' E 121°35'0 0.0
2017-Sep-09 05:28N 31°22' E 121°35'0 0.0
2017-Sep-09 04:58N 31°22' E 121°35'0 0.0
2017-Sep-09 04:28N 31°23' E 121°35'0 0.0
2017-Sep-09 03:58N 31°22' E 121°35'0 0.0
2017-Sep-09 03:28N 31°22' E 121°35'0 0.0
2017-Sep-09 02:58N 31°22' E 121°35'0 0.0
2017-Sep-09 02:28N 31°22' E 121°35'0 0.0
2017-Sep-09 01:58N 31°22' E 121°35'0 0.0
2017-Sep-09 01:28N 31°22' E 121°35'0 0.0
2017-Sep-09 00:58N 31°22' E 121°35'0 0.0
2017-Sep-09 00:28N 31°22' E 121°35'0 0.0
2017-Sep-08 23:58N 31°22' E 121°35'0 0.0
2017-Sep-08 23:28N 31°22' E 121°35'0 0.0
2017-Sep-08 22:58N 31°22' E 121°35'0 0.0
2017-Sep-08 22:28N 31°22' E 121°35'0 0.0
2017-Sep-08 21:58N 31°22' E 121°35'0 0.0
2017-Sep-08 21:28N 31°22' E 121°35'0 0.0
2017-Sep-08 20:58N 31°22' E 121°35'0 0.0
2017-Sep-08 20:28N 31°22' E 121°35'0 0.0
2017-Sep-08 19:58N 31°22' E 121°35'0 0.0
2017-Sep-08 19:28N 31°22' E 121°35'0 0.0
2017-Sep-08 18:58N 31°22' E 121°35'0 0.0
2017-Sep-08 18:28N 31°22' E 121°35'0 0.0
2017-Sep-08 17:58N 31°22' E 121°35'0 0.0
2017-Sep-08 17:28N 31°22' E 121°35'0 0.0
2017-Sep-08 16:58N 31°22' E 121°35'0 0.0
2017-Sep-08 16:22N 31°22' E 121°35'0 0.0
2017-Sep-08 15:55N 31°22' E 121°35'0 0.0
2017-Sep-08 15:29N 31°22' E 121°35'0 0.0
2017-Sep-08 14:58N 31°22' E 121°35'0 0.0
2017-Sep-08 14:28N 31°22' E 121°35'0 0.0
2017-Sep-08 13:55N 31°22' E 121°35'0 0.0
2017-Sep-08 13:28N 31°22' E 121°35'0 0.0
2017-Sep-08 12:58N 31°22' E 121°35'0 0.0
2017-Sep-08 12:28N 31°22' E 121°35'0 0.0
2017-Sep-08 11:55N 31°22' E 121°35'0 0.0
2017-Sep-08 11:28N 31°22' E 121°35'0 0.0
2017-Sep-08 10:58N 31°22' E 121°35'0 0.0
2017-Sep-08 10:29N 31°22' E 121°35'0 0.0
2017-Sep-08 09:58N 31°22' E 121°35'0 0.0
2017-Sep-08 09:28N 31°22' E 121°35'0 0.0
2017-Sep-08 08:55N 31°22' E 121°35'0 0.0
2017-Sep-08 08:13N 31°22' E 121°35'0 0.0
2017-Sep-08 07:58N 31°22' E 121°35'0 0.0
2017-Sep-08 07:28N 31°22' E 121°35'0 0.0
2017-Sep-08 06:58N 31°22' E 121°35'0 0.0
2017-Sep-08 06:29N 31°22' E 121°35'0 0.8
2017-Sep-08 06:00N 31°23' E 121°35'0 0.4
2017-Sep-08 05:30N 31°23' E 121°34'0 0.9
2017-Sep-08 05:00N 31°23' E 121°35'  

Dump ship's entire track history